Dmitry Donskoy — ER2630 — position and weather

sailwx.info

Track history (hours):
 
Tides and Currents Weather Stations Pressure Air Temp Water Temp Dewpoint Dewpoint Depression Visibility Wind Speed Wind Dir Waves Ship Positions

Dmitry Donskoy

Last reported at 2017-Nov-16 14:12 UTC. Time now 2017-Nov-19 12:41 UTC.
Position N 45°13' E 036°28'.

Length 138 m; draft 3.8 m.

Type: Cargo ship. MMSI: 214182630.

Date/timePositionNaut miles runAvg speedWind from/ knotsBaromVisibWave heightAir tempDewpointWater temp
2017-Nov-16 14:12N 45°13' E 036°28'2 7.0
2017-Nov-16 13:54N 45°15' E 036°28'3 6.7
2017-Nov-16 13:29N 45°18' E 036°29'4 8.1
2017-Nov-16 13:00N 45°20' E 036°34'4 8.0
2017-Nov-16 12:30N 45°21' E 036°39'4 7.1
2017-Nov-16 12:00N 45°25' E 036°41'3 5.8
2017-Nov-16 11:30N 45°28' E 036°40'2 4.1
2017-Nov-16 11:00N 45°28' E 036°38'0 0.2
2017-Nov-16 10:29N 45°28' E 036°38'0 0.0
2017-Nov-16 09:56N 45°28' E 036°38'0 0.0
2017-Nov-16 09:26N 45°28' E 036°38'0 0.0
2017-Nov-16 08:59N 45°28' E 036°37'0 0.0
2017-Nov-16 08:26N 45°28' E 036°38'0 0.0
2017-Nov-16 07:59N 45°28' E 036°37'0 0.0
2017-Nov-16 07:29N 45°28' E 036°38'0 0.0
2017-Nov-16 06:59N 45°28' E 036°38'0 0.0
2017-Nov-16 06:26N 45°28' E 036°38'0 0.0
2017-Nov-16 05:50N 45°28' E 036°38'0 0.0
2017-Nov-16 05:23N 45°28' E 036°38'0 0.0
2017-Nov-16 04:26N 45°28' E 036°38'0 0.0
2017-Nov-16 03:59N 45°28' E 036°38'0 0.0
2017-Nov-16 03:29N 45°28' E 036°38'0 0.0
2017-Nov-16 02:59N 45°28' E 036°38'0 0.0
2017-Nov-16 02:20N 45°28' E 036°38'0 0.0
2017-Nov-16 01:59N 45°28' E 036°38'0 0.0
2017-Nov-16 01:29N 45°28' E 036°38'0 0.0
2017-Nov-15 23:50N 45°28' E 036°38'0 0.0
2017-Nov-15 23:20N 45°28' E 036°38'0 0.0
2017-Nov-15 22:38N 45°28' E 036°38'0 0.0
2017-Nov-15 22:08N 45°28' E 036°38'0 0.0
2017-Nov-15 21:44N 45°28' E 036°38'0 0.0
2017-Nov-15 20:17N 45°28' E 036°38'0 0.0
2017-Nov-15 19:44N 45°28' E 036°38'0 0.0
2017-Nov-15 19:26N 45°28' E 036°38'0 0.0
2017-Nov-15 18:17N 45°28' E 036°38'0 0.0
2017-Nov-15 17:50N 45°28' E 036°38'0 0.0
2017-Nov-15 17:26N 45°28' E 036°38'0 0.0
2017-Nov-15 16:53N 45°28' E 036°38'0 0.0
2017-Nov-15 16:29N 45°28' E 036°38'0 0.0
2017-Nov-15 14:50N 45°28' E 036°38'0 0.0
2017-Nov-15 14:20N 45°28' E 036°38'0 0.0
2017-Nov-15 13:44N 45°28' E 036°38'0 0.0
2017-Nov-15 13:26N 45°28' E 036°38'0 0.1
2017-Nov-15 12:59N 45°28' E 036°38'1 2.7
2017-Nov-15 12:31N 45°29' E 036°39'3 6.8
2017-Nov-15 12:00N 45°31' E 036°43'  
2017-Nov-08 19:49N 45°25' E 036°41'2 7.3
2017-Nov-08 19:30N 45°23' E 036°41'3 6.6
2017-Nov-08 19:00N 45°21' E 036°38'3 5.9
2017-Nov-08 18:30N 45°20' E 036°34'3 6.3
2017-Nov-08 18:00N 45°18' E 036°30'4 7.2
2017-Nov-08 17:30N 45°15' E 036°29'3 5.5
2017-Nov-08 17:00N 45°12' E 036°30'1 1.1
2017-Nov-08 16:24N 45°12' E 036°31'0 0.0
2017-Nov-08 16:00N 45°12' E 036°31'0 0.0
2017-Nov-08 14:30N 45°12' E 036°30'0 0.0
2017-Nov-08 14:00N 45°12' E 036°30'0 0.0
2017-Nov-08 13:24N 45°12' E 036°30'0 0.0
2017-Nov-08 12:42N 45°12' E 036°30'0 0.0
2017-Nov-08 12:14N 45°12' E 036°30'0 0.0
2017-Nov-08 12:00N 45°12' E 036°30'0 0.0
2017-Nov-08 11:30N 45°12' E 036°30'0 0.0
2017-Nov-08 10:56N 45°12' E 036°31'0 0.0
2017-Nov-08 10:30N 45°12' E 036°30'0 0.0
2017-Nov-08 09:15N 45°12' E 036°30'0 0.1
2017-Nov-08 09:00N 45°12' E 036°31'4 0.1
2017-Nov-07 07:23N 45°15' E 036°28'3 7.0
2017-Nov-07 06:58N 45°18' E 036°29'3 7.2
2017-Nov-07 06:30N 45°19' E 036°33'4 7.3
2017-Nov-07 06:00N 45°21' E 036°38'3 7.0
2017-Nov-07 05:30N 45°24' E 036°40'3 6.1
2017-Nov-07 05:00N 45°27' E 036°40'2 4.9
2017-Nov-07 04:30N 45°29' E 036°38'  
Track history (hours):
 
Tides and Currents Weather Stations Pressure Air Temp Water Temp Dewpoint Dewpoint Depression Visibility Wind Speed Wind Dir Waves Ship Positions

Dmitry Donskoy

Last reported at 2017-Nov-16 14:12 UTC. Time now 2017-Nov-19 12:41 UTC.
Position N 45°13' E 036°28'.

Length 138 m; draft 3.8 m.

Type: Cargo ship. MMSI: 214182630.

Date/timePositionNaut miles runAvg speedWind from/ knotsBaromVisibWave heightAir tempDewpointWater temp
2017-Nov-16 14:12N 45°13' E 036°28'2 7.0
2017-Nov-16 13:54N 45°15' E 036°28'3 6.7
2017-Nov-16 13:29N 45°18' E 036°29'4 8.1
2017-Nov-16 13:00N 45°20' E 036°34'4 8.0
2017-Nov-16 12:30N 45°21' E 036°39'4 7.1
2017-Nov-16 12:00N 45°25' E 036°41'3 5.8
2017-Nov-16 11:30N 45°28' E 036°40'2 4.1
2017-Nov-16 11:00N 45°28' E 036°38'0 0.2
2017-Nov-16 10:29N 45°28' E 036°38'0 0.0
2017-Nov-16 09:56N 45°28' E 036°38'0 0.0
2017-Nov-16 09:26N 45°28' E 036°38'0 0.0
2017-Nov-16 08:59N 45°28' E 036°37'0 0.0
2017-Nov-16 08:26N 45°28' E 036°38'0 0.0
2017-Nov-16 07:59N 45°28' E 036°37'0 0.0
2017-Nov-16 07:29N 45°28' E 036°38'0 0.0
2017-Nov-16 06:59N 45°28' E 036°38'0 0.0
2017-Nov-16 06:26N 45°28' E 036°38'0 0.0
2017-Nov-16 05:50N 45°28' E 036°38'0 0.0
2017-Nov-16 05:23N 45°28' E 036°38'0 0.0
2017-Nov-16 04:26N 45°28' E 036°38'0 0.0
2017-Nov-16 03:59N 45°28' E 036°38'0 0.0
2017-Nov-16 03:29N 45°28' E 036°38'0 0.0
2017-Nov-16 02:59N 45°28' E 036°38'0 0.0
2017-Nov-16 02:20N 45°28' E 036°38'0 0.0
2017-Nov-16 01:59N 45°28' E 036°38'0 0.0
2017-Nov-16 01:29N 45°28' E 036°38'0 0.0
2017-Nov-15 23:50N 45°28' E 036°38'0 0.0
2017-Nov-15 23:20N 45°28' E 036°38'0 0.0
2017-Nov-15 22:38N 45°28' E 036°38'0 0.0
2017-Nov-15 22:08N 45°28' E 036°38'0 0.0
2017-Nov-15 21:44N 45°28' E 036°38'0 0.0
2017-Nov-15 20:17N 45°28' E 036°38'0 0.0
2017-Nov-15 19:44N 45°28' E 036°38'0 0.0
2017-Nov-15 19:26N 45°28' E 036°38'0 0.0
2017-Nov-15 18:17N 45°28' E 036°38'0 0.0
2017-Nov-15 17:50N 45°28' E 036°38'0 0.0
2017-Nov-15 17:26N 45°28' E 036°38'0 0.0
2017-Nov-15 16:53N 45°28' E 036°38'0 0.0
2017-Nov-15 16:29N 45°28' E 036°38'0 0.0
2017-Nov-15 14:50N 45°28' E 036°38'0 0.0
2017-Nov-15 14:20N 45°28' E 036°38'0 0.0
2017-Nov-15 13:44N 45°28' E 036°38'0 0.0
2017-Nov-15 13:26N 45°28' E 036°38'0 0.1
2017-Nov-15 12:59N 45°28' E 036°38'1 2.7
2017-Nov-15 12:31N 45°29' E 036°39'3 6.8
2017-Nov-15 12:00N 45°31' E 036°43'  
2017-Nov-08 19:49N 45°25' E 036°41'2 7.3
2017-Nov-08 19:30N 45°23' E 036°41'3 6.6
2017-Nov-08 19:00N 45°21' E 036°38'3 5.9
2017-Nov-08 18:30N 45°20' E 036°34'3 6.3
2017-Nov-08 18:00N 45°18' E 036°30'4 7.2
2017-Nov-08 17:30N 45°15' E 036°29'3 5.5
2017-Nov-08 17:00N 45°12' E 036°30'1 1.1
2017-Nov-08 16:24N 45°12' E 036°31'0 0.0
2017-Nov-08 16:00N 45°12' E 036°31'0 0.0
2017-Nov-08 14:30N 45°12' E 036°30'0 0.0
2017-Nov-08 14:00N 45°12' E 036°30'0 0.0
2017-Nov-08 13:24N 45°12' E 036°30'0 0.0
2017-Nov-08 12:42N 45°12' E 036°30'0 0.0
2017-Nov-08 12:14N 45°12' E 036°30'0 0.0
2017-Nov-08 12:00N 45°12' E 036°30'0 0.0
2017-Nov-08 11:30N 45°12' E 036°30'0 0.0
2017-Nov-08 10:56N 45°12' E 036°31'0 0.0
2017-Nov-08 10:30N 45°12' E 036°30'0 0.0
2017-Nov-08 09:15N 45°12' E 036°30'0 0.1
2017-Nov-08 09:00N 45°12' E 036°31'4 0.1
2017-Nov-07 07:23N 45°15' E 036°28'3 7.0
2017-Nov-07 06:58N 45°18' E 036°29'3 7.2
2017-Nov-07 06:30N 45°19' E 036°33'4 7.3
2017-Nov-07 06:00N 45°21' E 036°38'3 7.0
2017-Nov-07 05:30N 45°24' E 036°40'3 6.1
2017-Nov-07 05:00N 45°27' E 036°40'2 4.9
2017-Nov-07 04:30N 45°29' E 036°38'  

Dump ship's entire track history